Axtell, Utah
Current Conditions -  °F | °C
As of 9:35 AM on Monday 22 Dec 2014 (Local Time) from KDTA Reporting Station
Overcast Overcast  
Wind Chill: 35°   Ceiling: 800
Heat Index: 38°   Visibility: 10mi
Dew Point: 38°   Wind: 5mph
Humidity: 99%   Direction: 40°NE
Pressure: 30.01"   Gusts: NA
Location:  39.06°N, 111.82°W
Report Text: KDTA 221635Z AUTO 04004KT 10SM OVC008 04/03 A3001 RMK AO1 T00350034
Loading
Personal Weather Stations






























Interactive Weather Map New forecast layout! Learn more

10-Day Weather Forecast

Advertisements
Track Severe Weather on mobile